createdAt,value
2023-04-10T00:01:12.417Z,60.08
2023-04-10T00:04:16.323Z,60.11
2023-04-10T00:07:18.863Z,60.25
2023-04-10T00:10:22.902Z,60.13
2023-04-10T00:13:25.208Z,59.91
2023-04-10T00:16:28.129Z,59.64
2023-04-10T00:19:30.521Z,60.05
2023-04-10T00:22:33.396Z,60.13
2023-04-10T00:25:37.468Z,60.05
2023-04-10T00:28:40.739Z,60.10
2023-04-10T00:31:43.629Z,60.20
2023-04-10T00:34:46.409Z,60.16
2023-04-10T00:37:50.720Z,59.91
2023-04-10T00:40:53.015Z,60.09
2023-04-10T00:43:57.579Z,60.62
2023-04-10T00:47:00.420Z,61.36
2023-04-10T00:50:02.786Z,61.85
2023-04-10T00:53:05.824Z,61.97
2023-04-10T00:56:09.669Z,62.27
2023-04-10T00:59:14.000Z,61.90
2023-04-10T01:02:16.899Z,62.06
2023-04-10T01:05:19.700Z,62.29
2023-04-10T01:08:33.632Z,62.58
2023-04-10T01:11:59.166Z,62.47
2023-04-10T01:15:15.619Z,62.42
2023-04-10T01:18:41.716Z,62.58
2023-04-10T01:21:44.557Z,62.48
2023-04-10T01:25:36.217Z,62.47
2023-04-10T01:28:53.429Z,62.18
2023-04-10T01:32:03.974Z,62.27
2023-04-10T01:35:09.014Z,62.71
2023-04-10T01:38:12.823Z,62.65
2023-04-10T01:41:16.356Z,62.41
2023-04-10T01:44:22.831Z,62.90
2023-04-10T01:47:27.314Z,62.65
2023-04-10T01:50:31.940Z,63.00
2023-04-10T01:53:37.734Z,63.27
2023-04-10T01:56:41.782Z,63.42
2023-04-10T01:59:46.141Z,63.38
2023-04-10T02:02:50.176Z,63.26
2023-04-10T02:05:54.139Z,63.05
2023-04-10T02:09:11.103Z,63.49
2023-04-10T02:12:18.749Z,63.11
2023-04-10T02:15:23.720Z,63.45
2023-04-10T02:18:27.560Z,63.66
2023-04-10T02:21:29.898Z,64.04
2023-04-10T02:24:34.128Z,63.79
2023-04-10T02:27:38.238Z,63.75
2023-04-10T02:30:40.517Z,63.90
2023-04-10T02:33:45.831Z,64.22
2023-04-10T02:36:48.182Z,64.79
2023-04-10T02:39:50.717Z,65.14
2023-04-10T02:42:53.264Z,65.38
2023-04-10T02:45:57.689Z,65.78
2023-04-10T02:49:03.008Z,65.96
2023-04-10T02:52:05.951Z,66.11
2023-04-10T02:55:08.880Z,66.66
2023-04-10T02:58:15.061Z,66.66
2023-04-10T03:01:18.483Z,66.94
2023-04-10T03:04:23.213Z,67.22
2023-04-10T03:07:26.105Z,67.61
2023-04-10T03:10:29.770Z,68.37
2023-04-10T03:13:32.066Z,68.37
2023-04-10T03:16:34.920Z,69.03
2023-04-10T03:19:39.298Z,69.54
2023-04-10T03:22:42.151Z,69.88
2023-04-10T03:25:51.541Z,70.20
2023-04-10T03:28:53.594Z,70.00
2023-04-10T03:31:56.515Z,69.76
2023-04-10T03:34:59.431Z,70.97
2023-04-10T03:38:02.266Z,71.55
2023-04-10T03:41:06.924Z,71.85
2023-04-10T03:44:11.208Z,72.29
2023-04-10T03:47:13.735Z,72.76
2023-04-10T03:50:19.823Z,73.06
2023-04-10T03:53:36.113Z,73.25
2023-04-10T03:56:41.961Z,72.90
2023-04-10T03:59:44.866Z,72.92
2023-04-10T04:02:52.805Z,72.86
2023-04-10T04:06:15.874Z,72.66
2023-04-10T04:09:38.874Z,72.73
2023-04-10T04:12:55.095Z,72.79
2023-04-10T04:16:11.561Z,72.78
2023-04-10T04:19:29.828Z,72.98
2023-04-10T04:22:52.845Z,73.10
2023-04-10T04:26:14.623Z,73.48
2023-04-10T04:29:50.151Z,73.38
2023-04-10T04:33:20.427Z,73.70
2023-04-10T04:36:39.449Z,73.80
2023-04-10T04:40:11.365Z,73.67
2023-04-10T04:43:33.108Z,73.55
2023-04-10T04:46:44.476Z,73.75
2023-04-10T04:49:57.042Z,73.98
2023-04-10T04:53:18.517Z,73.73
2023-04-10T04:56:43.595Z,74.09
2023-04-10T04:59:55.391Z,74.11
2023-04-10T05:03:16.917Z,74.14
2023-04-10T05:06:36.079Z,74.30
2023-04-10T05:09:54.328Z,74.29
2023-04-10T05:13:18.101Z,74.03
2023-04-10T05:16:51.155Z,74.11
2023-04-10T05:20:13.268Z,74.38
2023-04-10T05:23:39.088Z,74.37
2023-04-10T05:26:50.901Z,74.36
2023-04-10T05:30:06.470Z,74.29
2023-04-10T05:33:11.520Z,74.49
2023-04-10T05:36:33.245Z,74.36
2023-04-10T05:39:54.452Z,74.18
2023-04-10T05:43:28.972Z,74.42
2023-04-10T05:46:37.304Z,74.55
2023-04-10T05:49:57.236Z,74.63
2023-04-10T05:53:31.261Z,74.41
2023-04-10T05:56:52.553Z,75.00
2023-04-10T06:00:25.435Z,74.84
2023-04-10T06:03:47.149Z,75.07
2023-04-10T06:06:51.673Z,75.40
2023-04-10T06:09:54.936Z,75.28
2023-04-10T06:12:58.675Z,75.30
2023-04-10T06:16:01.982Z,75.46
2023-04-10T06:19:07.094Z,75.37
2023-04-10T06:22:10.999Z,75.15
2023-04-10T06:25:14.304Z,75.45
2023-04-10T06:28:17.130Z,75.35
2023-04-10T06:31:23.832Z,75.11
2023-04-10T06:34:26.432Z,75.31
2023-04-10T06:37:34.465Z,75.20
2023-04-10T06:40:39.682Z,75.19
2023-04-10T06:43:42.379Z,75.04
2023-04-10T06:46:45.208Z,74.77
2023-04-10T06:49:48.475Z,74.52
2023-04-10T06:52:53.225Z,73.96
2023-04-10T06:55:55.090Z,73.54
2023-04-10T06:58:58.077Z,73.22
2023-04-10T07:02:00.395Z,73.31
2023-04-10T07:05:02.824Z,73.01
2023-04-10T07:08:05.104Z,73.13
2023-04-10T07:11:07.924Z,73.43
2023-04-10T07:14:10.539Z,73.57
2023-04-10T07:17:13.287Z,73.26
2023-04-10T07:20:16.110Z,72.51
2023-04-10T07:23:19.788Z,72.00
2023-04-10T07:26:22.066Z,72.06
2023-04-10T07:29:24.541Z,71.68
2023-04-10T07:32:27.252Z,70.95
2023-04-10T07:35:29.504Z,70.73
2023-04-10T07:38:34.821Z,70.39
2023-04-10T07:41:37.829Z,69.86
2023-04-10T07:44:39.678Z,69.35
2023-04-10T07:47:41.546Z,69.70
2023-04-10T07:50:43.289Z,69.61
2023-04-10T07:53:45.058Z,69.46
2023-04-10T07:56:47.008Z,69.32
2023-04-10T07:59:48.726Z,69.33
2023-04-10T08:02:55.713Z,69.19
2023-04-10T08:05:57.641Z,69.10
2023-04-10T08:08:59.518Z,69.24
2023-04-10T08:12:01.428Z,68.95
2023-04-10T08:15:03.285Z,69.04
2023-04-10T08:18:05.131Z,68.67
2023-04-10T08:21:07.182Z,68.18
2023-04-10T08:24:09.039Z,68.06
2023-04-10T08:27:10.911Z,67.42
2023-04-10T08:30:13.067Z,67.41
2023-04-10T08:33:15.618Z,67.47
2023-04-10T08:36:19.836Z,67.32
2023-04-10T08:39:22.235Z,67.34
2023-04-10T08:42:24.044Z,67.03
2023-04-10T08:45:25.873Z,67.19
2023-04-10T08:48:32.514Z,67.20
2023-04-10T08:51:47.227Z,67.02
2023-04-10T08:54:54.693Z,67.27
2023-04-10T08:58:00.944Z,67.37
2023-04-10T09:01:08.087Z,67.60
2023-04-10T09:04:14.096Z,67.62
2023-04-10T09:07:16.612Z,67.52
2023-04-10T09:10:18.361Z,67.99
2023-04-10T09:13:39.058Z,68.14
2023-04-10T09:16:41.106Z,68.18
2023-04-10T09:19:44.010Z,68.16
2023-04-10T09:22:45.922Z,67.91
2023-04-10T09:25:49.318Z,67.49
2023-04-10T09:29:05.311Z,67.64
2023-04-10T09:32:07.095Z,67.37
2023-04-10T09:35:14.187Z,66.98
2023-04-10T09:38:17.187Z,66.80
2023-04-10T09:41:18.946Z,66.53
2023-04-10T09:44:29.465Z,65.90
2023-04-10T09:47:31.707Z,65.46
2023-04-10T09:50:43.653Z,65.17
2023-04-10T09:53:51.058Z,65.45
2023-04-10T09:56:53.873Z,65.49
2023-04-10T09:59:57.632Z,65.45
2023-04-10T10:03:02.635Z,65.68
2023-04-10T10:06:05.200Z,65.64
2023-04-10T10:09:07.201Z,65.83
2023-04-10T10:12:11.235Z,65.89
2023-04-10T10:15:21.809Z,65.54
2023-04-10T10:18:31.701Z,65.39
2023-04-10T10:21:34.881Z,64.98
2023-04-10T10:24:40.159Z,64.59
2023-04-10T10:27:42.277Z,64.29
2023-04-10T10:30:45.361Z,63.91
2023-04-10T10:33:47.752Z,63.88
2023-04-10T10:36:50.556Z,63.57
2023-04-10T10:40:11.901Z,63.50
2023-04-10T10:43:21.760Z,63.13
2023-04-10T10:46:39.420Z,63.11
2023-04-10T10:49:54.733Z,62.96
2023-04-10T10:53:00.450Z,62.68
2023-04-10T10:56:21.181Z,62.43
2023-04-10T11:00:01.604Z,61.80
2023-04-10T11:03:16.587Z,61.11
2023-04-10T11:06:20.954Z,61.01
2023-04-10T11:09:45.967Z,60.94
2023-04-10T11:13:17.208Z,60.47
2023-04-10T11:16:21.380Z,59.96
2023-04-10T11:19:26.755Z,59.45
2023-04-10T11:22:28.953Z,58.48
2023-04-10T11:25:54.262Z,57.70
2023-04-10T11:28:56.287Z,56.77
2023-04-10T11:32:00.225Z,55.79
2023-04-10T11:35:04.815Z,55.11
2023-04-10T11:38:13.704Z,54.07
2023-04-10T11:41:18.573Z,53.74
2023-04-10T11:44:31.626Z,53.08
2023-04-10T11:47:33.573Z,52.68
2023-04-10T11:50:36.566Z,52.73
2023-04-10T11:53:41.127Z,52.71
2023-04-10T11:56:44.842Z,52.66
2023-04-10T11:59:50.527Z,52.64
2023-04-10T12:02:53.335Z,53.07
2023-04-10T12:05:57.123Z,53.08
2023-04-10T12:09:01.049Z,52.57
2023-04-10T12:12:05.535Z,52.71
2023-04-10T12:15:29.086Z,52.71
2023-04-10T12:18:31.570Z,52.71
2023-04-10T12:21:36.999Z,52.55
2023-04-10T12:24:54.956Z,52.10
2023-04-10T12:27:56.713Z,52.45
2023-04-10T12:30:58.575Z,52.22
2023-04-10T12:34:08.533Z,52.09
2023-04-10T12:37:11.577Z,52.08
2023-04-10T12:40:14.062Z,51.98
2023-04-10T12:43:31.470Z,52.03
2023-04-10T12:46:33.825Z,52.23
2023-04-10T12:49:35.574Z,52.02
2023-04-10T12:52:41.930Z,52.15
2023-04-10T12:56:03.567Z,52.38
2023-04-10T12:59:08.344Z,52.76
2023-04-10T13:02:10.281Z,52.60
2023-04-10T13:05:12.568Z,52.44
2023-04-10T13:08:14.767Z,51.86
2023-04-10T13:11:16.651Z,51.56
2023-04-10T13:14:18.515Z,51.63
2023-04-10T13:17:27.445Z,52.12
2023-04-10T13:20:30.251Z,52.22
2023-04-10T13:23:32.035Z,52.43
2023-04-10T13:26:33.860Z,52.82
2023-04-10T13:29:37.342Z,53.06
2023-04-10T13:32:39.119Z,53.36
2023-04-10T13:35:41.008Z,53.38
2023-04-10T13:38:42.969Z,53.58
2023-04-10T13:41:44.665Z,53.68
2023-04-10T13:44:46.496Z,53.64
2023-04-10T13:47:48.455Z,53.81
2023-04-10T13:50:50.440Z,53.74
2023-04-10T13:53:52.167Z,53.90
2023-04-10T13:56:54.790Z,54.19
2023-04-10T13:59:56.689Z,53.57
2023-04-10T14:02:58.583Z,53.21
2023-04-10T14:06:01.004Z,52.89
2023-04-10T14:09:02.910Z,52.54
2023-04-10T14:12:04.871Z,51.91
2023-04-10T14:15:07.223Z,52.26
2023-04-10T14:18:09.529Z,51.90
2023-04-10T14:21:11.322Z,51.07
2023-04-10T14:24:13.274Z,51.01
2023-04-10T14:27:15.160Z,51.21
2023-04-10T14:30:16.962Z,51.34
2023-04-10T14:33:20.164Z,51.44
2023-04-10T14:36:22.933Z,51.50
2023-04-10T14:39:25.326Z,51.95
2023-04-10T14:42:27.438Z,52.11
2023-04-10T14:45:29.640Z,52.66
2023-04-10T14:48:31.566Z,53.16
2023-04-10T14:51:33.743Z,53.39
2023-04-10T14:54:35.495Z,53.31
2023-04-10T14:57:37.349Z,53.98
2023-04-10T15:00:39.144Z,53.96
2023-04-10T15:03:40.987Z,54.11
2023-04-10T15:06:43.276Z,54.07
2023-04-10T15:09:46.307Z,54.36
2023-04-10T15:12:48.063Z,54.51
2023-04-10T15:15:50.018Z,54.64
2023-04-10T15:18:52.485Z,54.78
2023-04-10T15:21:57.121Z,55.19
2023-04-10T15:24:59.033Z,55.07
2023-04-10T15:28:02.118Z,55.42
2023-04-10T15:31:04.225Z,55.60
2023-04-10T15:34:06.314Z,55.46
2023-04-10T15:37:08.175Z,55.61
2023-04-10T15:40:10.616Z,54.96
2023-04-10T15:43:13.130Z,55.02
2023-04-10T15:46:17.614Z,54.95
2023-04-10T15:49:29.909Z,54.74
2023-04-10T15:52:38.634Z,54.11
2023-04-10T15:55:40.817Z,53.69
2023-04-10T15:58:45.031Z,53.22
2023-04-10T16:01:49.094Z,53.01
2023-04-10T16:04:52.635Z,52.66
2023-04-10T16:07:55.728Z,53.03
2023-04-10T16:10:57.556Z,53.39
2023-04-10T16:13:59.406Z,53.73
2023-04-10T16:17:01.192Z,53.77
2023-04-10T16:20:06.947Z,53.43
2023-04-10T16:23:10.037Z,53.76
2023-04-10T16:26:11.752Z,53.53
2023-04-10T16:29:18.334Z,53.45
2023-04-10T16:32:20.686Z,53.67
2023-04-10T16:35:22.974Z,53.45
2023-04-10T16:38:24.892Z,53.48
2023-04-10T16:41:27.016Z,53.51
2023-04-10T16:44:29.282Z,53.68
2023-04-10T16:47:31.240Z,54.08
2023-04-10T16:50:37.704Z,54.65
2023-04-10T16:53:41.240Z,55.00
2023-04-10T16:56:42.993Z,55.01
2023-04-10T16:59:44.720Z,55.16
2023-04-10T17:02:47.560Z,55.47
2023-04-10T17:05:49.472Z,55.40
2023-04-10T17:08:51.237Z,55.56
2023-04-10T17:11:56.140Z,56.33
2023-04-10T17:14:57.906Z,56.54
2023-04-10T17:17:59.701Z,56.29
2023-04-10T17:21:01.879Z,56.49
2023-04-10T17:24:05.387Z,57.03
2023-04-10T17:27:07.822Z,57.06
2023-04-10T17:30:12.254Z,57.14
2023-04-10T17:33:14.090Z,57.06
2023-04-10T17:36:16.013Z,56.90
2023-04-10T17:39:17.885Z,56.93
2023-04-10T17:42:19.625Z,56.72
2023-04-10T17:45:23.718Z,57.14
2023-04-10T17:48:25.726Z,57.22
2023-04-10T17:51:27.658Z,57.67
2023-04-10T17:54:29.489Z,57.74
2023-04-10T17:57:31.241Z,57.50
2023-04-10T18:00:36.186Z,57.43
2023-04-10T18:03:37.881Z,57.50
2023-04-10T18:06:40.977Z,57.54
2023-04-10T18:09:42.732Z,57.45
2023-04-10T18:12:44.750Z,57.37
2023-04-10T18:15:46.518Z,57.17
2023-04-10T18:18:48.915Z,57.52
2023-04-10T18:21:51.922Z,57.30
2023-04-10T18:24:53.776Z,57.50
2023-04-10T18:28:12.920Z,57.61
2023-04-10T18:31:16.892Z,57.58
2023-04-10T18:34:19.814Z,57.70
2023-04-10T18:37:21.630Z,57.60
2023-04-10T18:40:24.121Z,57.60
2023-04-10T18:43:28.649Z,57.29
2023-04-10T18:46:32.564Z,57.03
2023-04-10T18:49:34.515Z,56.90
2023-04-10T18:52:36.224Z,56.67
2023-04-10T18:55:37.994Z,56.51
2023-04-10T18:58:41.306Z,56.18
2023-04-10T19:01:43.103Z,56.32
2023-04-10T19:04:44.965Z,56.48
2023-04-10T19:08:00.800Z,56.74
2023-04-10T19:11:07.141Z,56.91
2023-04-10T19:14:10.731Z,57.32
2023-04-10T19:17:12.467Z,57.69
2023-04-10T19:20:14.324Z,57.98
2023-04-10T19:23:16.182Z,58.29
2023-04-10T19:26:24.089Z,58.62
2023-04-10T19:29:28.623Z,58.85
2023-04-10T19:32:50.655Z,58.91
2023-04-10T19:36:01.517Z,59.06
2023-04-10T19:39:05.275Z,59.05
2023-04-10T19:42:07.612Z,59.14
2023-04-10T19:45:15.936Z,59.08
2023-04-10T19:48:24.078Z,59.30
2023-04-10T19:51:47.780Z,58.94
2023-04-10T19:54:51.692Z,59.15
2023-04-10T19:57:56.714Z,59.38
2023-04-10T20:01:03.446Z,58.84
2023-04-10T20:04:05.525Z,59.15
2023-04-10T20:07:10.158Z,59.08
2023-04-10T20:10:12.048Z,59.32
2023-04-10T20:13:16.646Z,59.11
2023-04-10T20:16:21.194Z,59.19
2023-04-10T20:19:26.855Z,59.17
2023-04-10T20:22:30.456Z,59.03
2023-04-10T20:25:33.448Z,58.71
2023-04-10T20:28:35.729Z,59.10
2023-04-10T20:31:37.653Z,59.64
2023-04-10T20:34:39.631Z,59.46
2023-04-10T20:37:41.417Z,59.80
2023-04-10T20:40:43.184Z,59.76
2023-04-10T20:43:46.004Z,59.64
2023-04-10T20:46:51.831Z,59.90
2023-04-10T20:49:55.680Z,59.53
2023-04-10T20:52:59.387Z,59.79
2023-04-10T20:56:05.577Z,60.00
2023-04-10T20:59:11.662Z,60.05
2023-04-10T21:02:13.563Z,60.27
2023-04-10T21:05:15.597Z,60.55
2023-04-10T21:08:21.883Z,61.47
2023-04-10T21:11:23.818Z,61.42
2023-04-10T21:14:25.729Z,61.17
2023-04-10T21:17:31.684Z,60.59
2023-04-10T21:20:36.615Z,60.27
2023-04-10T21:23:38.371Z,59.90
2023-04-10T21:26:40.221Z,59.72
2023-04-10T21:29:42.257Z,59.82
2023-04-10T21:32:44.235Z,59.60
2023-04-10T21:35:53.690Z,59.53
2023-04-10T21:38:56.105Z,59.37
2023-04-10T21:41:59.337Z,59.29
2023-04-10T21:45:04.088Z,59.08
2023-04-10T21:48:06.610Z,59.26
2023-04-10T21:51:08.668Z,59.25
2023-04-10T21:54:35.042Z,59.48
2023-04-10T21:57:38.183Z,59.67
2023-04-10T22:00:42.062Z,59.51
2023-04-10T22:03:44.069Z,59.64
2023-04-10T22:06:46.128Z,59.71
2023-04-10T22:09:49.181Z,59.63
2023-04-10T22:12:52.847Z,59.76
2023-04-10T22:15:54.617Z,59.92
2023-04-10T22:18:56.685Z,60.26
2023-04-10T22:22:00.564Z,60.54
2023-04-10T22:25:02.260Z,60.61
2023-04-10T22:28:07.510Z,61.02
2023-04-10T22:31:16.538Z,60.99
2023-04-10T22:34:18.328Z,60.89
2023-04-10T22:37:20.738Z,61.05
2023-04-10T22:40:24.474Z,61.13
2023-04-10T22:43:26.251Z,61.21
2023-04-10T22:46:28.625Z,61.33
2023-04-10T22:49:30.554Z,61.44
2023-04-10T22:52:34.765Z,62.09
2023-04-10T22:55:40.007Z,62.92
2023-04-10T22:58:41.907Z,62.75
2023-04-10T23:01:43.892Z,63.01
2023-04-10T23:04:47.110Z,62.99
2023-04-10T23:07:48.860Z,63.21
2023-04-10T23:10:55.643Z,63.55
2023-04-10T23:13:57.426Z,63.48
2023-04-10T23:17:00.253Z,63.55
2023-04-10T23:20:02.225Z,63.57
2023-04-10T23:23:04.071Z,63.83
2023-04-10T23:26:06.101Z,64.17
2023-04-10T23:29:07.905Z,64.52
2023-04-10T23:32:09.890Z,64.21
2023-04-10T23:35:11.764Z,64.28
2023-04-10T23:38:15.540Z,64.43
2023-04-10T23:41:17.466Z,64.50
2023-04-10T23:44:19.402Z,64.92
2023-04-10T23:47:21.230Z,64.97
2023-04-10T23:50:25.799Z,65.18
2023-04-10T23:53:27.697Z,65.24
2023-04-10T23:56:32.014Z,65.36
2023-04-10T23:59:35.157Z,65.30
